Airfield :
LOGIN :

Register | Disclaimer

   EN    FR    IT 

 










Legend :    VFR   Marginal VFR   IFR   Intensive IFR   Very Intensive IFR
Visi :
Ceiling :
>= 8 km
>= 3000ft
5 to 8 km
1000 to 3000 ft
1500m to 5 km
500 to 1000 ft
800 to 1500m
200 to 500 ft
< 800m
< 200 ft
Symbols :   Thunderstorms  Fog  Heavy snow  Heavy precipitations  Wind > 20 kt
SIGMETs :     Misc.  Thunderstorms  Icing  Turbulence  Mountain Waves  Volcanic Ashes







- Airport Elevation : 327 ft
- IATA code : BHX
- Download approach charts


EGBB - Birmingham

CURRENT METAR :
  • 221420Z 12008KT 9000 BKN024 02/M03 Q1024

EXPIRED METARs :
  • 221350Z 08009KT 9000 BKN025 02/M03 Q1024
  • 221320Z 09009KT 9000 BKN025 02/M03 Q1024
  • 221250Z 09009KT 9000 BKN026 02/M03 Q1025
  • 221220Z 12010KT 9000 BKN025 02/M03 Q1025
  • 221150Z 10009KT 9000 BKN025 02/M03 Q1025

TAF TAF EGBB
Valid from the 22 at 12:00 until the 23 at 12:00 UTC


221100Z 2212/2312 10009KT 9999 SCT025
PROB40 2212/2312 8000
ATIS : +44 121 780 0910
No reported NOTAMs for that airfield.



MET'MAP, your aeronautical weather chart ! - Copyright ORBIFLY December 2007 - Disclaimer

ORBIFLY MET'MAP TEAM :

Programming & Development : Alexandra Zaïnal
Concept & Development : Baudouin d'Aumeries
Co-Development & Prog : Marc-Olivier Méhu
Technical & hardware support : Manuel Goepfert

Contact : metmap@orbifly.com




SOURCES & CREDITS :

   NOAA